createdAt,value
2018-09-08T00:00:24.384Z,1011.16
2018-09-08T00:00:50.543Z,1011.19
2018-09-08T00:01:16.690Z,1011.2
2018-09-08T00:01:42.819Z,1011.18
2018-09-08T00:02:08.982Z,1011.19
2018-09-08T00:02:35.100Z,1011.15
2018-09-08T00:03:01.254Z,1011.16
2018-09-08T00:03:27.416Z,1011.13
2018-09-08T00:03:53.589Z,1011.12
2018-09-08T00:04:19.732Z,1011.15
2018-09-08T00:04:45.875Z,1011.13
2018-09-08T00:05:12.052Z,1011.13
2018-09-08T00:05:38.205Z,1011.14
2018-09-08T00:06:04.360Z,1011.12
2018-09-08T00:06:30.504Z,1011.13
2018-09-08T00:06:56.632Z,1011.14
2018-09-08T00:07:22.762Z,1011.18
2018-09-08T00:07:48.915Z,1011.14
2018-09-08T00:08:15.047Z,1011.17
2018-09-08T00:08:41.184Z,1011.16
2018-09-08T00:09:07.345Z,1011.2
2018-09-08T00:09:33.495Z,1011.18
2018-09-08T00:09:59.626Z,1011.21
2018-09-08T00:10:25.763Z,1011.23
2018-09-08T00:10:51.928Z,1011.17
2018-09-08T00:11:18.058Z,1011.18
2018-09-08T00:11:44.202Z,1011.23
2018-09-08T00:12:10.371Z,1011.18
2018-09-08T00:12:36.535Z,1011.22
2018-09-08T00:13:02.669Z,1011.24
2018-09-08T00:13:28.834Z,1011.26
2018-09-08T00:13:54.955Z,1011.25
2018-09-08T00:14:21.096Z,1011.25
2018-09-08T00:14:47.226Z,1011.2
2018-09-08T00:15:13.355Z,1011.24
2018-09-08T00:15:39.506Z,1011.24
2018-09-08T00:16:05.634Z,1011.22
2018-09-08T00:16:31.774Z,1011.3
2018-09-08T00:16:57.912Z,1011.28
2018-09-08T00:17:24.061Z,1011.21
2018-09-08T00:17:50.194Z,1011.24
2018-09-08T00:18:16.334Z,1011.23
2018-09-08T00:18:42.467Z,1011.25
2018-09-08T00:19:08.628Z,1011.29
2018-09-08T00:19:34.750Z,1011.29
2018-09-08T00:20:00.916Z,1011.29
2018-09-08T00:20:27.043Z,1011.25
2018-09-08T00:20:53.185Z,1011.24
2018-09-08T00:21:20.267Z,1011.26
2018-09-08T00:21:46.417Z,1011.23
2018-09-08T00:22:12.557Z,1011.22
2018-09-08T00:22:38.715Z,1011.22
2018-09-08T00:23:04.854Z,1011.29
2018-09-08T00:23:31.016Z,1011.22
2018-09-08T00:23:57.145Z,1011.2
2018-09-08T00:24:23.315Z,1011.2
2018-09-08T00:24:49.459Z,1011.21
2018-09-08T00:25:15.621Z,1011.24
2018-09-08T00:25:41.749Z,1011.2
2018-09-08T00:26:07.911Z,1011.21
2018-09-08T00:26:34.031Z,1011.2
2018-09-08T00:27:00.164Z,1011.2
2018-09-08T00:27:26.299Z,1011.15
2018-09-08T00:27:52.439Z,1011.19
2018-09-08T00:28:18.576Z,1011.21
2018-09-08T00:28:44.737Z,1011.21
2018-09-08T00:29:10.878Z,1011.19
2018-09-08T00:29:37.000Z,1011.2
2018-09-08T00:30:03.135Z,1011.23
2018-09-08T00:30:29.300Z,1011.22
2018-09-08T00:30:55.499Z,1011.23
2018-09-08T00:31:21.629Z,1011.25
2018-09-08T00:31:47.770Z,1011.22
2018-09-08T00:32:13.921Z,1011.24
2018-09-08T00:32:40.084Z,1011.25
2018-09-08T00:33:06.227Z,1011.26
2018-09-08T00:33:32.363Z,1011.22
2018-09-08T00:33:58.552Z,1011.26
2018-09-08T00:34:24.725Z,1011.24
2018-09-08T00:34:50.862Z,1011.23
2018-09-08T00:35:16.993Z,1011.23
2018-09-08T00:35:43.166Z,1011.26
2018-09-08T00:36:09.311Z,1011.26
2018-09-08T00:36:35.428Z,1011.26
2018-09-08T00:37:01.569Z,1011.31
2018-09-08T00:37:27.695Z,1011.3
2018-09-08T00:37:53.839Z,1011.29
2018-09-08T00:38:19.995Z,1011.33
2018-09-08T00:38:46.118Z,1011.34
2018-09-08T00:39:12.245Z,1011.37
2018-09-08T00:39:38.392Z,1011.38
2018-09-08T00:40:04.516Z,1011.38
2018-09-08T00:40:30.655Z,1011.44
2018-09-08T00:40:56.786Z,1011.4
2018-09-08T00:41:22.930Z,1011.43
2018-09-08T00:41:49.094Z,1011.38
2018-09-08T00:42:15.225Z,1011.39
2018-09-08T00:42:41.361Z,1011.39
2018-09-08T00:43:07.496Z,1011.41
2018-09-08T00:43:33.633Z,1011.42
2018-09-08T00:43:59.761Z,1011.4
2018-09-08T00:44:25.899Z,1011.41
2018-09-08T00:44:52.029Z,1011.42
2018-09-08T00:45:18.186Z,1011.4
2018-09-08T00:45:44.317Z,1011.42
2018-09-08T00:46:10.499Z,1011.44
2018-09-08T00:46:36.624Z,1011.38
2018-09-08T00:47:02.768Z,1011.42
2018-09-08T00:47:29.003Z,1011.48
2018-09-08T00:47:55.130Z,1011.42
2018-09-08T00:48:21.596Z,1011.43
2018-09-08T00:48:47.665Z,1011.43
2018-09-08T00:49:13.823Z,1011.42
2018-09-08T00:49:39.967Z,1011.42
2018-09-08T00:50:06.102Z,1011.4
2018-09-08T00:50:32.253Z,1011.47
2018-09-08T00:50:58.418Z,1011.46
2018-09-08T00:51:24.569Z,1011.4
2018-09-08T00:51:50.852Z,1011.36
2018-09-08T00:52:16.986Z,1011.41
2018-09-08T00:52:43.121Z,1011.31
2018-09-08T00:53:09.250Z,1011.44
2018-09-08T00:53:35.392Z,1011.39
2018-09-08T00:54:01.520Z,1011.42
2018-09-08T00:54:27.656Z,1011.4
2018-09-08T00:54:53.795Z,1011.41
2018-09-08T00:55:19.935Z,1011.44
2018-09-08T00:55:46.105Z,1011.43
2018-09-08T00:56:12.234Z,1011.44
2018-09-08T00:56:38.367Z,1011.46
2018-09-08T00:57:04.507Z,1011.43
2018-09-08T00:57:30.665Z,1011.45
2018-09-08T00:57:56.811Z,1011.46
2018-09-08T00:58:22.956Z,1011.48
2018-09-08T00:58:49.105Z,1011.48
2018-09-08T00:59:15.259Z,1011.51
2018-09-08T00:59:41.385Z,1011.52
2018-09-08T01:00:07.525Z,1011.51
2018-09-08T01:00:33.676Z,1011.52
2018-09-08T01:00:59.843Z,1011.53
2018-09-08T01:01:25.994Z,1011.53
2018-09-08T01:01:52.148Z,1011.53
2018-09-08T01:02:18.294Z,1011.51
2018-09-08T01:02:44.419Z,1011.56
2018-09-08T01:03:10.550Z,1011.54
2018-09-08T01:03:36.733Z,1011.53
2018-09-08T01:04:02.846Z,1011.54
2018-09-08T01:04:28.985Z,1011.56
2018-09-08T01:04:55.122Z,1011.56
2018-09-08T01:05:21.254Z,1011.54
2018-09-08T01:05:47.392Z,1011.53
2018-09-08T01:06:13.529Z,1011.53
2018-09-08T01:06:39.664Z,1011.55
2018-09-08T01:07:05.822Z,1011.53
2018-09-08T01:07:32.058Z,1011.49
2018-09-08T01:07:58.118Z,1011.53
2018-09-08T01:08:24.251Z,1011.54
2018-09-08T01:08:50.412Z,1011.54
2018-09-08T01:09:16.544Z,1011.5
2018-09-08T01:09:42.686Z,1011.45
2018-09-08T01:10:08.831Z,1011.49
2018-09-08T01:10:34.975Z,1011.46
2018-09-08T01:11:01.131Z,1011.46
2018-09-08T01:11:27.265Z,1011.45
2018-09-08T01:11:53.399Z,1011.43
2018-09-08T01:12:19.557Z,1011.45
2018-09-08T01:12:45.693Z,1011.45
2018-09-08T01:13:11.858Z,1011.46
2018-09-08T01:13:37.992Z,1011.43
2018-09-08T01:14:04.133Z,1011.45
2018-09-08T01:14:30.274Z,1011.49
2018-09-08T01:14:56.415Z,1011.49
2018-09-08T01:15:22.549Z,1011.45
2018-09-08T01:15:48.678Z,1011.44
2018-09-08T01:16:14.860Z,1011.45
2018-09-08T01:16:41.015Z,1011.44
2018-09-08T01:17:07.193Z,1011.44
2018-09-08T01:17:33.375Z,1011.42
2018-09-08T01:17:59.505Z,1011.44
2018-09-08T01:18:25.650Z,1011.44
2018-09-08T01:18:51.830Z,1011.44
2018-09-08T01:19:17.981Z,1011.45
2018-09-08T01:19:44.148Z,1011.48
2018-09-08T01:20:10.291Z,1011.47
2018-09-08T01:20:36.442Z,1011.45
2018-09-08T01:21:02.595Z,1011.43
2018-09-08T01:21:28.762Z,1011.47
2018-09-08T01:21:54.893Z,1011.39
2018-09-08T01:22:21.030Z,1011.39
2018-09-08T01:22:47.162Z,1011.44
2018-09-08T01:23:13.298Z,1011.43
2018-09-08T01:23:39.431Z,1011.41
2018-09-08T01:24:05.609Z,1011.42
2018-09-08T01:24:31.787Z,1011.4
2018-09-08T01:24:57.935Z,1011.45
2018-09-08T01:25:24.074Z,1011.42
2018-09-08T01:25:50.227Z,1011.46
2018-09-08T01:26:16.372Z,1011.44
2018-09-08T01:26:42.512Z,1011.45
2018-09-08T01:27:08.663Z,1011.45
2018-09-08T01:27:34.803Z,1011.41
2018-09-08T01:28:00.954Z,1011.44
2018-09-08T01:28:27.084Z,1011.47
2018-09-08T01:28:53.223Z,1011.44
2018-09-08T01:29:19.380Z,1011.46
2018-09-08T01:29:45.549Z,1011.44
2018-09-08T01:30:11.684Z,1011.42
2018-09-08T01:30:37.824Z,1011.45
2018-09-08T01:31:03.980Z,1011.47
2018-09-08T01:31:30.118Z,1011.45
2018-09-08T01:31:56.266Z,1011.46
2018-09-08T01:32:22.409Z,1011.48
2018-09-08T01:32:48.535Z,1011.48
2018-09-08T01:33:14.677Z,1011.49
2018-09-08T01:33:40.812Z,1011.45
2018-09-08T01:34:06.945Z,1011.47
2018-09-08T01:34:33.083Z,1011.46
2018-09-08T01:34:59.212Z,1011.48
2018-09-08T01:35:25.355Z,1011.47
2018-09-08T01:35:51.479Z,1011.47
2018-09-08T01:36:17.610Z,1011.49
2018-09-08T01:36:43.789Z,1011.48
2018-09-08T01:37:09.907Z,1011.48
2018-09-08T01:37:36.043Z,1011.49
2018-09-08T01:38:02.185Z,1011.5
2018-09-08T01:38:28.319Z,1011.5
2018-09-08T01:38:54.472Z,1011.5
2018-09-08T01:39:20.610Z,1011.49
2018-09-08T01:39:46.739Z,1011.49
2018-09-08T01:40:12.893Z,1011.52
2018-09-08T01:40:39.034Z,1011.5
2018-09-08T01:41:05.200Z,1011.46
2018-09-08T01:41:31.339Z,1011.43
2018-09-08T01:41:57.506Z,1011.49
2018-09-08T01:42:23.641Z,1011.5
2018-09-08T01:42:49.773Z,1011.45
2018-09-08T01:43:15.930Z,1011.46
2018-09-08T01:43:42.056Z,1011.5
2018-09-08T01:44:08.197Z,1011.48
2018-09-08T01:44:34.330Z,1011.48
2018-09-08T01:45:00.461Z,1011.47
2018-09-08T01:45:26.597Z,1011.5
2018-09-08T01:45:52.728Z,1011.43
2018-09-08T01:46:18.862Z,1011.49
2018-09-08T01:46:45.010Z,1011.5
2018-09-08T01:47:11.140Z,1011.48
2018-09-08T01:47:37.304Z,1011.45
2018-09-08T01:48:03.438Z,1011.49
2018-09-08T01:48:29.631Z,1011.49
2018-09-08T01:48:55.761Z,1011.46
2018-09-08T01:49:21.913Z,1011.5
2018-09-08T01:49:48.052Z,1011.48
2018-09-08T01:50:14.216Z,1011.48
2018-09-08T01:50:40.379Z,1011.48
2018-09-08T01:51:06.524Z,1011.5
2018-09-08T01:51:32.669Z,1011.52
2018-09-08T01:51:58.807Z,1011.56
2018-09-08T01:52:24.937Z,1011.57
2018-09-08T01:52:51.068Z,1011.51
2018-09-08T01:53:17.223Z,1011.54
2018-09-08T01:53:43.363Z,1011.51
2018-09-08T01:54:09.533Z,1011.51
2018-09-08T01:54:35.661Z,1011.5
2018-09-08T01:55:01.815Z,1011.55
2018-09-08T01:55:28.000Z,1011.51
2018-09-08T01:55:54.155Z,1011.48
2018-09-08T01:56:20.306Z,1011.47
2018-09-08T01:56:46.465Z,1011.54
2018-09-08T01:57:12.621Z,1011.49
2018-09-08T01:57:38.755Z,1011.54
2018-09-08T01:58:04.905Z,1011.51
2018-09-08T01:58:31.032Z,1011.5
2018-09-08T01:58:57.190Z,1011.52
2018-09-08T01:59:23.346Z,1011.51
2018-09-08T01:59:49.511Z,1011.49
2018-09-08T02:00:15.669Z,1011.49
2018-09-08T02:00:41.807Z,1011.51
2018-09-08T02:01:07.942Z,1011.48
2018-09-08T02:01:34.101Z,1011.54
2018-09-08T02:02:00.231Z,1011.53
2018-09-08T02:02:26.389Z,1011.5
2018-09-08T02:02:52.521Z,1011.49
2018-09-08T02:03:18.664Z,1011.49
2018-09-08T02:03:44.784Z,1011.52
2018-09-08T02:04:10.920Z,1011.52
2018-09-08T02:04:37.064Z,1011.52
2018-09-08T02:05:03.229Z,1011.5
2018-09-08T02:05:29.374Z,1011.53
2018-09-08T02:05:55.523Z,1011.53
2018-09-08T02:06:21.660Z,1011.47
2018-09-08T02:06:47.794Z,1011.52
2018-09-08T02:07:13.941Z,1011.54
2018-09-08T02:07:40.083Z,1011.54
2018-09-08T02:08:06.208Z,1011.55
2018-09-08T02:08:32.374Z,1011.58
2018-09-08T02:08:58.544Z,1011.54
2018-09-08T02:09:24.671Z,1011.51
2018-09-08T02:09:50.842Z,1011.55
2018-09-08T02:10:16.993Z,1011.57
2018-09-08T02:10:43.126Z,1011.56
2018-09-08T02:11:09.295Z,1011.53
2018-09-08T02:11:35.424Z,1011.55
2018-09-08T02:12:01.586Z,1011.56
2018-09-08T02:12:27.725Z,1011.54
2018-09-08T02:12:53.862Z,1011.55
2018-09-08T02:13:19.998Z,1011.5
2018-09-08T02:13:46.137Z,1011.5
2018-09-08T02:14:12.294Z,1011.53
2018-09-08T02:14:38.428Z,1011.54
2018-09-08T02:15:04.584Z,1011.52
2018-09-08T02:15:30.729Z,1011.49
2018-09-08T02:15:56.894Z,1011.5
2018-09-08T02:16:23.038Z,1011.5
2018-09-08T02:16:49.231Z,1011.53
2018-09-08T02:17:15.372Z,1011.51
2018-09-08T02:17:41.503Z,1011.56
2018-09-08T02:18:07.641Z,1011.53
2018-09-08T02:18:33.779Z,1011.51
2018-09-08T02:18:59.914Z,1011.54
2018-09-08T02:19:26.043Z,1011.48
2018-09-08T02:19:52.202Z,1011.52
2018-09-08T02:20:18.335Z,1011.49
2018-09-08T02:20:44.487Z,1011.48
2018-09-08T02:21:10.619Z,1011.49
2018-09-08T02:21:36.755Z,1011.49
2018-09-08T02:22:02.897Z,1011.46
2018-09-08T02:22:29.031Z,1011.48
2018-09-08T02:22:55.196Z,1011.48
2018-09-08T02:23:21.336Z,1011.41
2018-09-08T02:23:47.470Z,1011.45
2018-09-08T02:24:13.622Z,1011.46
2018-09-08T02:24:39.747Z,1011.44
2018-09-08T02:25:05.894Z,1011.43
2018-09-08T02:25:32.077Z,1011.43
2018-09-08T02:25:58.167Z,1011.44
2018-09-08T02:26:24.333Z,1011.48
2018-09-08T02:26:50.464Z,1011.45
2018-09-08T02:27:16.601Z,1011.47
2018-09-08T02:27:42.758Z,1011.48
2018-09-08T02:28:08.904Z,1011.46
2018-09-08T02:28:35.102Z,1011.49
2018-09-08T02:29:01.247Z,1011.47
2018-09-08T02:29:27.379Z,1011.46
2018-09-08T02:29:53.522Z,1011.49
2018-09-08T02:30:19.655Z,1011.45
2018-09-08T02:30:45.823Z,1011.5
2018-09-08T02:31:11.973Z,1011.5
2018-09-08T02:31:38.121Z,1011.45
2018-09-08T02:32:04.316Z,1011.47
2018-09-08T02:32:30.476Z,1011.45
2018-09-08T02:32:56.620Z,1011.52
2018-09-08T02:33:22.767Z,1011.46
2018-09-08T02:33:48.924Z,1011.47
2018-09-08T02:34:15.102Z,1011.49
2018-09-08T02:34:41.234Z,1011.46
2018-09-08T02:35:07.421Z,1011.52
2018-09-08T02:35:33.615Z,1011.46
2018-09-08T02:35:59.768Z,1011.51
2018-09-08T02:36:25.928Z,1011.55
2018-09-08T02:36:52.067Z,1011.51
2018-09-08T02:37:18.214Z,1011.53
2018-09-08T02:37:44.413Z,1011.47
2018-09-08T02:38:10.536Z,1011.46
2018-09-08T02:38:36.700Z,1011.5
2018-09-08T02:39:02.842Z,1011.48
2018-09-08T02:39:28.974Z,1011.46
2018-09-08T02:39:55.113Z,1011.44
2018-09-08T02:40:21.250Z,1011.5
2018-09-08T02:40:47.384Z,1011.47
2018-09-08T02:41:13.563Z,1011.49
2018-09-08T02:41:39.748Z,1011.48
2018-09-08T02:42:05.910Z,1011.48
2018-09-08T02:42:32.045Z,1011.49
2018-09-08T02:42:58.176Z,1011.52
2018-09-08T02:43:24.347Z,1011.51
2018-09-08T02:43:50.484Z,1011.49
2018-09-08T02:44:16.629Z,1011.54
2018-09-08T02:44:42.784Z,1011.52
2018-09-08T02:45:08.931Z,1011.56
2018-09-08T02:45:35.176Z,1011.53
2018-09-08T02:46:01.301Z,1011.5
2018-09-08T02:46:27.443Z,1011.51
2018-09-08T02:46:53.599Z,1011.52
2018-09-08T02:47:19.762Z,1011.5
2018-09-08T02:47:45.932Z,1011.48
2018-09-08T02:48:12.114Z,1011.54
2018-09-08T02:48:38.227Z,1011.56
2018-09-08T02:49:04.369Z,1011.58
2018-09-08T02:49:30.499Z,1011.61
2018-09-08T02:49:56.670Z,1011.55
2018-09-08T02:50:22.801Z,1011.54
2018-09-08T02:50:48.981Z,1011.54
2018-09-08T02:51:15.146Z,1011.54
2018-09-08T02:51:41.280Z,1011.51
2018-09-08T02:52:07.440Z,1011.55
2018-09-08T02:52:33.601Z,1011.48
2018-09-08T02:52:59.749Z,1011.53
2018-09-08T02:53:25.908Z,1011.51
2018-09-08T02:53:52.043Z,1011.49
2018-09-08T02:54:18.172Z,1011.43
2018-09-08T02:54:44.322Z,1011.47
2018-09-08T02:55:10.457Z,1011.46
2018-09-08T02:55:36.617Z,1011.46
2018-09-08T02:56:02.751Z,1011.49
2018-09-08T02:56:28.887Z,1011.42
2018-09-08T02:56:55.077Z,1011.45
2018-09-08T02:57:21.227Z,1011.47
2018-09-08T02:57:47.364Z,1011.46
2018-09-08T02:58:13.535Z,1011.47
2018-09-08T02:58:39.670Z,1011.46
2018-09-08T02:59:05.805Z,1011.43
2018-09-08T02:59:31.943Z,1011.43
2018-09-08T02:59:58.083Z,1011.44
2018-09-08T03:00:24.266Z,1011.44
2018-09-08T03:00:50.429Z,1011.47
2018-09-08T03:01:16.564Z,1011.42
2018-09-08T03:01:42.766Z,1011.42
2018-09-08T03:02:08.920Z,1011.49
2018-09-08T03:02:35.054Z,1011.51
2018-09-08T03:03:01.204Z,1011.47
2018-09-08T03:03:27.371Z,1011.53
2018-09-08T03:03:53.516Z,1011.49
2018-09-08T03:04:19.642Z,1011.49
2018-09-08T03:04:45.794Z,1011.5
2018-09-08T03:05:11.929Z,1011.52
2018-09-08T03:05:38.062Z,1011.52
2018-09-08T03:06:04.192Z,1011.49
2018-09-08T03:06:30.360Z,1011.57
2018-09-08T03:06:56.507Z,1011.52
2018-09-08T03:07:22.672Z,1011.51
2018-09-08T03:07:48.822Z,1011.51
2018-09-08T03:08:14.976Z,1011.52
2018-09-08T03:08:41.154Z,1011.53
2018-09-08T03:09:07.288Z,1011.53
2018-09-08T03:09:33.486Z,1011.54
2018-09-08T03:09:59.624Z,1011.51
2018-09-08T03:10:25.777Z,1011.47
2018-09-08T03:10:51.918Z,1011.49
2018-09-08T03:11:18.042Z,1011.53
2018-09-08T03:11:44.198Z,1011.51
2018-09-08T03:12:10.332Z,1011.56
2018-09-08T03:12:36.502Z,1011.52
2018-09-08T03:13:02.650Z,1011.53
2018-09-08T03:13:28.778Z,1011.54
2018-09-08T03:13:54.923Z,1011.57
2018-09-08T03:14:21.059Z,1011.56
2018-09-08T03:14:47.213Z,1011.54
2018-09-08T03:15:13.351Z,1011.57
2018-09-08T03:15:39.490Z,1011.58
2018-09-08T03:16:05.677Z,1011.59
2018-09-08T03:16:31.815Z,1011.56
2018-09-08T03:16:57.967Z,1011.56
2018-09-08T03:17:24.098Z,1011.56
2018-09-08T03:17:50.232Z,1011.51
2018-09-08T03:18:16.427Z,1011.56
2018-09-08T03:18:42.557Z,1011.56
2018-09-08T03:19:08.694Z,1011.57
2018-09-08T03:19:34.849Z,1011.56
2018-09-08T03:20:01.008Z,1011.58
2018-09-08T03:20:27.141Z,1011.61
2018-09-08T03:20:53.325Z,1011.6
2018-09-08T03:21:19.474Z,1011.58
2018-09-08T03:21:45.643Z,1011.53
2018-09-08T03:22:11.825Z,1011.61
2018-09-08T03:22:37.967Z,1011.64
2018-09-08T03:23:04.121Z,1011.58
2018-09-08T03:23:30.283Z,1011.66
2018-09-08T03:23:56.417Z,1011.59
2018-09-08T03:24:22.552Z,1011.6
2018-09-08T03:24:48.678Z,1011.58
2018-09-08T03:25:14.827Z,1011.63
2018-09-08T03:25:40.964Z,1011.65
2018-09-08T03:26:07.101Z,1011.63
2018-09-08T03:26:33.276Z,1011.68
2018-09-08T03:26:59.423Z,1011.67
2018-09-08T03:27:25.580Z,1011.7
2018-09-08T03:27:51.734Z,1011.69
2018-09-08T03:28:17.879Z,1011.73
2018-09-08T03:28:44.017Z,1011.74
2018-09-08T03:29:10.144Z,1011.74
2018-09-08T03:29:36.293Z,1011.76
2018-09-08T03:30:02.434Z,1011.8
2018-09-08T03:30:28.611Z,1011.81
2018-09-08T03:30:54.831Z,1011.79
2018-09-08T03:31:20.972Z,1011.83
2018-09-08T03:31:47.172Z,1011.81
2018-09-08T03:32:13.333Z,1011.85
2018-09-08T03:32:39.505Z,1011.85
2018-09-08T03:33:05.687Z,1011.85
2018-09-08T03:33:31.840Z,1011.85
2018-09-08T03:33:57.974Z,1011.85
2018-09-08T03:34:24.132Z,1011.87
2018-09-08T03:34:50.266Z,1011.84
2018-09-08T03:35:16.423Z,1011.87
2018-09-08T03:35:42.552Z,1011.86
2018-09-08T03:36:08.700Z,1011.86
2018-09-08T03:36:34.846Z,1011.87
2018-09-08T03:37:00.978Z,1011.88
2018-09-08T03:37:27.115Z,1011.91
2018-09-08T03:37:53.260Z,1011.91
2018-09-08T03:38:19.398Z,1011.89
2018-09-08T03:38:45.548Z,1011.89
2018-09-08T03:39:11.707Z,1011.91
2018-09-08T03:39:37.869Z,1011.92
2018-09-08T03:40:03.989Z,1011.93
2018-09-08T03:40:30.133Z,1011.94
2018-09-08T03:40:56.276Z,1011.93
2018-09-08T03:41:22.413Z,1011.96
2018-09-08T03:41:48.554Z,1011.99
2018-09-08T03:42:14.680Z,1011.95
2018-09-08T03:42:40.816Z,1011.97
2018-09-08T03:43:06.943Z,1011.96
2018-09-08T03:43:33.074Z,1011.97
2018-09-08T03:43:59.232Z,1012
2018-09-08T03:44:25.376Z,1011.99
2018-09-08T03:44:51.510Z,1012
2018-09-08T03:45:17.684Z,1011.98
2018-09-08T03:45:43.842Z,1012
2018-09-08T03:46:09.972Z,1012.01
2018-09-08T03:46:36.108Z,1011.99
2018-09-08T03:47:02.249Z,1012.03
2018-09-08T03:47:28.403Z,1012
2018-09-08T03:47:54.570Z,1012.04
2018-09-08T03:48:20.693Z,1012.03
2018-09-08T03:48:46.862Z,1012.04
2018-09-08T03:49:13.011Z,1012.01
2018-09-08T03:49:39.173Z,1012
2018-09-08T03:50:05.338Z,1012.03
2018-09-08T03:50:31.463Z,1011.97
2018-09-08T03:50:57.607Z,1012.02
2018-09-08T03:51:23.743Z,1012.04
2018-09-08T03:51:49.882Z,1012.03
2018-09-08T03:52:16.049Z,1012
2018-09-08T03:52:42.213Z,1012.01
2018-09-08T03:53:08.352Z,1012.05
2018-09-08T03:53:34.519Z,1012
2018-09-08T03:54:00.654Z,1012.02
2018-09-08T03:54:26.802Z,1012.04
2018-09-08T03:54:52.952Z,1012.05
2018-09-08T03:55:19.093Z,1012.05
2018-09-08T03:55:45.248Z,1012.05
2018-09-08T03:56:11.380Z,1012.04
2018-09-08T03:56:37.520Z,1011.98
2018-09-08T03:57:03.667Z,1012.07
2018-09-08T03:57:29.800Z,1012.04
2018-09-08T03:57:55.940Z,1012.02
2018-09-08T03:58:22.084Z,1012
2018-09-08T03:58:48.246Z,1012.01
2018-09-08T03:59:14.428Z,1012.02
2018-09-08T03:59:40.583Z,1012.02
2018-09-08T04:00:06.732Z,1012.05
2018-09-08T04:00:32.876Z,1012
2018-09-08T04:00:59.003Z,1012.05
2018-09-08T04:01:25.140Z,1012.02
2018-09-08T04:01:51.299Z,1012.06
2018-09-08T04:02:17.438Z,1012.05
2018-09-08T04:02:43.575Z,1012.09
2018-09-08T04:03:09.706Z,1012.04
2018-09-08T04:03:35.844Z,1012.05
2018-09-08T04:04:01.992Z,1012.05
2018-09-08T04:04:28.140Z,1012.08
2018-09-08T04:04:54.285Z,1012.07
2018-09-08T04:05:20.436Z,1012.08
2018-09-08T04:05:46.658Z,1012.09
2018-09-08T04:06:12.775Z,1012.08
2018-09-08T04:06:38.932Z,1012.06
2018-09-08T04:07:05.073Z,1012.08
2018-09-08T04:07:31.229Z,1012.13
2018-09-08T04:07:57.402Z,1012.12
2018-09-08T04:08:23.570Z,1012.06
2018-09-08T04:08:49.722Z,1012.08
2018-09-08T04:09:15.856Z,1012.1
2018-09-08T04:09:41.998Z,1012.13
2018-09-08T04:10:08.145Z,1012.12
2018-09-08T04:10:34.283Z,1012.12
2018-09-08T04:11:00.420Z,1012.11
2018-09-08T04:11:26.589Z,1012.11
2018-09-08T04:11:52.763Z,1012.13
2018-09-08T04:12:18.945Z,1012.1
2018-09-08T04:12:45.128Z,1012.12
2018-09-08T04:13:11.296Z,1012.09
2018-09-08T04:13:37.446Z,1012.15
2018-09-08T04:14:03.576Z,1012.13
2018-09-08T04:14:29.719Z,1012.11
2018-09-08T04:14:55.870Z,1012.12
2018-09-08T04:15:22.018Z,1012.1
2018-09-08T04:15:48.185Z,1012.08
2018-09-08T04:16:14.359Z,1012.07
2018-09-08T04:16:40.491Z,1012.08
2018-09-08T04:17:06.633Z,1012.09
2018-09-08T04:17:32.799Z,1012.09
2018-09-08T04:17:58.975Z,1012.08
2018-09-08T04:18:25.088Z,1012.1
2018-09-08T04:18:51.275Z,1012.17
2018-09-08T04:19:17.415Z,1012.12
2018-09-08T04:19:43.549Z,1012.13
2018-09-08T04:20:09.719Z,1012.16
2018-09-08T04:20:35.879Z,1012.18
2018-09-08T04:21:02.034Z,1012.18
2018-09-08T04:21:28.158Z,1012.16
2018-09-08T04:21:54.296Z,1012.17
2018-09-08T04:22:20.438Z,1012.15
2018-09-08T04:22:46.570Z,1012.17
2018-09-08T04:23:12.713Z,1012.18
2018-09-08T04:23:38.896Z,1012.17
2018-09-08T04:24:05.121Z,1012.16
2018-09-08T04:24:31.245Z,1012.14
2018-09-08T04:24:57.379Z,1012.18
2018-09-08T04:25:23.548Z,1012.15
2018-09-08T04:25:49.691Z,1012.12
2018-09-08T04:26:15.828Z,1012.15
2018-09-08T04:26:41.974Z,1012.13
2018-09-08T04:27:08.118Z,1012.17
2018-09-08T04:27:34.262Z,1012.15
2018-09-08T04:28:00.400Z,1012.13
2018-09-08T04:28:26.560Z,1012.16
2018-09-08T04:28:52.691Z,1012.13
2018-09-08T04:29:18.837Z,1012.18
2018-09-08T04:29:44.980Z,1012.15
2018-09-08T04:30:11.165Z,1012.18
2018-09-08T04:30:37.297Z,1012.16
2018-09-08T04:31:03.452Z,1012.17
2018-09-08T04:31:29.589Z,1012.19
2018-09-08T04:31:55.730Z,1012.19
2018-09-08T04:32:21.888Z,1012.15
2018-09-08T04:32:48.050Z,1012.14
2018-09-08T04:33:14.214Z,1012.18
2018-09-08T04:33:40.370Z,1012.18
2018-09-08T04:34:06.505Z,1012.15
2018-09-08T04:34:32.695Z,1012.16
2018-09-08T04:34:58.837Z,1012.15
2018-09-08T04:35:24.988Z,1012.17
2018-09-08T04:35:51.148Z,1012.16
2018-09-08T04:36:17.305Z,1012.21
2018-09-08T04:36:43.466Z,1012.2
2018-09-08T04:37:09.633Z,1012.17
2018-09-08T04:37:35.783Z,1012.21
2018-09-08T04:38:01.958Z,1012.19
2018-09-08T04:38:28.083Z,1012.18
2018-09-08T04:38:54.239Z,1012.24
2018-09-08T04:39:20.371Z,1012.23
2018-09-08T04:39:46.511Z,1012.19
2018-09-08T04:40:12.677Z,1012.22
2018-09-08T04:40:38.801Z,1012.24
2018-09-08T04:41:05.126Z,1012.24
2018-09-08T04:41:31.123Z,1012.21
2018-09-08T04:41:57.266Z,1012.24
2018-09-08T04:42:23.410Z,1012.26
2018-09-08T04:42:49.555Z,1012.25
2018-09-08T04:43:15.682Z,1012.25
2018-09-08T04:43:41.827Z,1012.21
2018-09-08T04:44:07.971Z,1012.24
2018-09-08T04:44:34.142Z,1012.25
2018-09-08T04:45:00.276Z,1012.27
2018-09-08T04:45:26.418Z,1012.26
2018-09-08T04:45:52.570Z,1012.26
2018-09-08T04:46:18.712Z,1012.26
2018-09-08T04:46:44.857Z,1012.27
2018-09-08T04:47:10.985Z,1012.27
2018-09-08T04:47:37.136Z,1012.27
2018-09-08T04:48:03.274Z,1012.25
2018-09-08T04:48:29.403Z,1012.26
2018-09-08T04:48:55.579Z,1012.25
2018-09-08T04:49:21.852Z,1012.29
2018-09-08T04:49:47.865Z,1012.25
2018-09-08T04:50:14.046Z,1012.27
2018-09-08T04:50:40.211Z,1012.26
2018-09-08T04:51:06.383Z,1012.27
2018-09-08T04:51:32.525Z,1012.3
2018-09-08T04:51:58.657Z,1012.32
2018-09-08T04:52:24.800Z,1012.33
2018-09-08T04:52:50.932Z,1012.34
2018-09-08T04:53:17.109Z,1012.32
2018-09-08T04:53:43.263Z,1012.31
2018-09-08T04:54:09.480Z,1012.32
2018-09-08T04:54:35.608Z,1012.32
2018-09-08T04:55:01.751Z,1012.33
2018-09-08T04:55:27.913Z,1012.39
2018-09-08T04:55:54.077Z,1012.37
2018-09-08T04:56:20.226Z,1012.38
2018-09-08T04:56:46.370Z,1012.37
2018-09-08T04:57:12.567Z,1012.39
2018-09-08T04:57:38.707Z,1012.38
2018-09-08T04:58:04.849Z,1012.4
2018-09-08T04:58:31.003Z,1012.41
2018-09-08T04:58:57.136Z,1012.42
2018-09-08T04:59:23.275Z,1012.45
2018-09-08T04:59:49.443Z,1012.39
2018-09-08T05:00:15.590Z,1012.43
2018-09-08T05:00:41.720Z,1012.42
2018-09-08T05:01:07.867Z,1012.4
2018-09-08T05:01:34.018Z,1012.42
2018-09-08T05:02:00.149Z,1012.43
2018-09-08T05:02:26.334Z,1012.4
2018-09-08T05:02:52.454Z,1012.4
2018-09-08T05:03:18.586Z,1012.4
2018-09-08T05:03:44.723Z,1012.39
2018-09-08T05:04:10.932Z,1012.42
2018-09-08T05:04:37.073Z,1012.4
2018-09-08T05:05:03.240Z,1012.42
2018-09-08T05:05:29.381Z,1012.38
2018-09-08T05:05:55.535Z,1012.4
2018-09-08T05:06:21.711Z,1012.42
2018-09-08T05:06:47.885Z,1012.39
2018-09-08T05:07:14.028Z,1012.43
2018-09-08T05:07:40.175Z,1012.42
2018-09-08T05:08:06.350Z,1012.43
2018-09-08T05:08:32.488Z,1012.44
2018-09-08T05:08:58.637Z,1012.41
2018-09-08T05:09:24.786Z,1012.43
2018-09-08T05:09:50.951Z,1012.42
2018-09-08T05:10:17.100Z,1012.44
2018-09-08T05:10:43.243Z,1012.45
2018-09-08T05:11:09.376Z,1012.48
2018-09-08T05:11:35.515Z,1012.5
2018-09-08T05:12:01.686Z,1012.46
2018-09-08T05:12:27.829Z,1012.47
2018-09-08T05:12:53.956Z,1012.47
2018-09-08T05:13:20.114Z,1012.48
2018-09-08T05:13:46.260Z,1012.48
2018-09-08T05:14:12.432Z,1012.5
2018-09-08T05:14:38.575Z,1012.49
2018-09-08T05:15:04.712Z,1012.45
2018-09-08T05:15:30.848Z,1012.49
2018-09-08T05:15:56.983Z,1012.47
2018-09-08T05:16:23.144Z,1012.52
2018-09-08T05:16:49.279Z,1012.48
2018-09-08T05:17:15.478Z,1012.53
2018-09-08T05:17:41.587Z,1012.5